Time;durP1;ratioP1;P1;durP2;ratioP2;P2;SDS_P1;SDS_P2;PMS_P1;PMS_P2;Temp;Humidity;BMP_temperature;BMP_pressure;BME280_temperature;BME280_humidity;BME280_pressure;Samples;Min_cycle;Max_cycle;Signal;HPM_P1;HPM_P2
2024/03/07 00:01:50;;;;;;;;;;;;;;;;;;2204017;67;1900;-19
2024/03/07 00:04:21;;;;;;;;;;;;;;;;;;2205232;67;2083;-19
2024/03/07 00:06:51;;;;;;;;;;;;;;;;;;2208816;67;1786;-19
2024/03/07 00:09:24;;;;;;;;;;;;;;;;;;2208536;67;2182;-19
2024/03/07 00:11:54;;;;;;;;;;;;;;;;;;2204425;67;1943;-19
2024/03/07 00:14:27;;;;;;;;;;;;;;;;;;2208985;59;1865;-19
2024/03/07 00:17:02;;;;;;;;;;;;;;;;;;2207358;67;1842;-19
2024/03/07 00:19:33;;;;;;;;;;;;;;;;;;2208307;67;2297;-19
2024/03/07 00:22:03;;;;;;;;;;;;;;;;;;2208360;67;1874;-19
2024/03/07 00:24:33;;;;;;;;;;;;;;;;;;2206351;59;2098;-19
2024/03/07 00:27:04;;;;;;;;;;;;;;;;;;2205410;59;2356;-19
2024/03/07 00:29:37;;;;;;;;;;;;;;;;;;2209927;67;1883;-19
2024/03/07 00:32:08;;;;;;;;;;;;;;;;;;2208404;67;2799;-19
2024/03/07 00:34:39;;;;;;;;;;;;;;;;;;2206467;67;2038;-19
2024/03/07 00:37:10;;;;;;;;;;;;;;;;;;2207929;67;1870;-19
2024/03/07 00:39:40;;;;;;;;;;;;;;;;;;2209838;59;2090;-19
2024/03/07 00:42:11;;;;;;;;;;;;;;;;;;2207948;67;2806;-19
2024/03/07 00:44:41;;;;;;;;;;;;;;;;;;2209505;59;1954;-19
2024/03/07 00:47:11;;;;;;;;;;;;;;;;;;2208044;59;1862;-19
2024/03/07 00:49:41;;;;;;;;;;;;;;;;;;2208952;67;1805;-19
2024/03/07 00:52:15;;;;;;;;;;;;;;;;;;2208682;59;1984;-19
2024/03/07 00:54:46;;;;;;;;;;;;;;;;;;2208679;59;2094;-19
2024/03/07 00:57:16;;;;;;;;;;;;;;;;;;2209102;67;1969;-19
2024/03/07 00:59:48;;;;;;;;;;;;;;;;;;2209507;59;1817;-19
2024/03/07 01:02:18;;;;;;;;;;;;;;;;;;2207610;67;1850;-19
2024/03/07 01:04:49;;;;;;;;;;;;;;;;;;2206576;59;2330;-19
2024/03/07 01:07:19;;;;;;;;;;;;;;;;;;2209384;67;2244;-19
2024/03/07 01:09:50;;;;;;;;;;;;;;;;;;2206551;67;1909;-19
2024/03/07 01:12:23;;;;;;;;;;;;;;;;;;2206243;67;2240;-19
2024/03/07 01:14:54;;;;;;;;;;;;;;;;;;2207273;59;1789;-19
2024/03/07 01:17:24;;;;;;;;;;;;;;;;;;2202497;67;1871;-19
2024/03/07 01:19:55;;;;;;;;;;;;;;;;;;2205530;67;1836;-19
2024/03/07 01:22:25;;;;;;;;;;;;;;;;;;2208753;67;2338;-19
2024/03/07 01:24:56;;;;;;;;;;;;;;;;;;2208977;59;2624;-19
2024/03/07 01:27:26;;;;;;;;;;;;;;;;;;2204483;67;2005;-19
2024/03/07 01:29:57;;;;;;;;;;;;;;;;;;2210096;67;1837;-19
2024/03/07 01:32:28;;;;;;;;;;;;;;;;;;2209023;67;1846;-19
2024/03/07 01:34:58;;;;;;;;;;;;;;;;;;2209811;59;1815;-19
2024/03/07 01:37:29;;;;;;;;;;;;;;;;;;2207000;59;2800;-19
2024/03/07 01:39:59;;;;;;;;;;;;;;;;;;2205860;59;2457;-19
2024/03/07 01:42:30;;;;;;;;;;;;;;;;;;2209115;67;1970;-19
2024/03/07 01:45:00;;;;;;;;;;;;;;;;;;2210125;58;2131;-19
2024/03/07 01:47:30;;;;;;;;;;;;;;;;;;2205023;67;1918;-19
2024/03/07 01:50:01;;;;;;;;;;;;;;;;;;2209085;67;2231;-28
2024/03/07 01:52:31;;;;;;;;;;;;;;;;;;2207137;59;1989;-19
2024/03/07 01:55:02;;;;;;;;;;;;;;;;;;2210135;59;1855;-19
2024/03/07 01:57:34;;;;;;;;;;;;;;;;;;2209507;67;1923;-19
2024/03/07 02:00:06;;;;;;;;;;;;;;;;;;2206257;59;1852;-19
2024/03/07 02:02:37;;;;;;;;;;;;;;;;;;2208936;59;1820;-19
2024/03/07 02:05:07;;;;;;;;;;;;;;;;;;2209448;59;1913;-19
2024/03/07 02:07:38;;;;;;;;;;;;;;;;;;2209942;67;1906;-19
2024/03/07 02:10:09;;;;;;;;;;;;;;;;;;2208741;67;1908;-19
2024/03/07 02:12:40;;;;;;;;;;;;;;;;;;2209084;67;1871;-19
2024/03/07 02:15:13;;;;;;;;;;;;;;;;;;2209586;59;1878;-19
2024/03/07 02:17:44;;;;;;;;;;;;;;;;;;2205232;67;1910;-19
2024/03/07 02:20:15;;;;;;;;;;;;;;;;;;2208610;67;1894;-19
2024/03/07 02:22:46;;;;;;;;;;;;;;;;;;2209945;67;1852;-19
2024/03/07 02:25:16;;;;;;;;;;;;;;;;;;2205456;67;2021;-19
2024/03/07 02:27:47;;;;;;;;;;;;;;;;;;2209049;66;1885;-19
2024/03/07 02:30:18;;;;;;;;;;;;;;;;;;2209287;67;1894;-19
2024/03/07 02:32:51;;;;;;;;;;;;;;;;;;2208051;59;2683;-19
2024/03/07 02:35:22;;;;;;;;;;;;;;;;;;2206151;67;2024;-19
2024/03/07 02:37:53;;;;;;;;;;;;;;;;;;2209249;59;1872;-19
2024/03/07 02:40:23;;;;;;;;;;;;;;;;;;2207357;59;2186;-19
2024/03/07 02:42:54;;;;;;;;;;;;;;;;;;2207880;67;2096;-19
2024/03/07 02:45:25;;;;;;;;;;;;;;;;;;2209148;59;2023;-19
2024/03/07 02:47:55;;;;;;;;;;;;;;;;;;2202785;67;2020;-19
2024/03/07 02:50:25;;;;;;;;;;;;;;;;;;2207263;67;2799;-19
2024/03/07 02:52:56;;;;;;;;;;;;;;;;;;2204883;59;1865;-19
2024/03/07 02:55:26;;;;;;;;;;;;;;;;;;2207178;59;1864;-18
2024/03/07 02:57:58;;;;;;;;;;;;;;;;;;2207527;59;1829;-19
2024/03/07 03:00:32;;;;;;;;;;;;;;;;;;2206275;59;1872;-19
2024/03/07 03:03:02;;;;;;;;;;;;;;;;;;2205369;59;1762;-18
2024/03/07 03:05:33;;;;;;;;;;;;;;;;;;2207455;67;2350;-19
2024/03/07 03:08:06;;;;;;;;;;;;;;;;;;2205920;67;1820;-19
2024/03/07 03:10:37;;;;;;;;;;;;;;;;;;2201102;67;2452;-19
2024/03/07 03:13:08;;;;;;;;;;;;;;;;;;2206929;67;2358;-19
2024/03/07 03:15:38;;;;;;;;;;;;;;;;;;2209145;59;1770;-19
2024/03/07 03:18:09;;;;;;;;;;;;;;;;;;2207478;67;2670;-18
2024/03/07 03:20:39;;;;;;;;;;;;;;;;;;2205606;67;1846;-18
2024/03/07 03:23:13;;;;;;;;;;;;;;;;;;2202372;67;1813;-19
2024/03/07 03:25:43;;;;;;;;;;;;;;;;;;2208558;67;3268;-19
2024/03/07 03:28:14;;;;;;;;;;;;;;;;;;2209344;67;1968;-19
2024/03/07 03:30:44;;;;;;;;;;;;;;;;;;2209346;67;2269;-18
2024/03/07 03:33:15;;;;;;;;;;;;;;;;;;2204888;67;2080;-18
2024/03/07 03:35:45;;;;;;;;;;;;;;;;;;2209648;67;2459;-18
2024/03/07 03:38:18;;;;;;;;;;;;;;;;;;2208521;59;1830;-19
2024/03/07 03:40:48;;;;;;;;;;;;;;;;;;2209110;59;2005;-19
2024/03/07 03:43:19;;;;;;;;;;;;;;;;;;2205126;59;1814;-19
2024/03/07 03:45:49;;;;;;;;;;;;;;;;;;2207313;59;1945;-18
2024/03/07 03:48:19;;;;;;;;;;;;;;;;;;2209770;67;1855;-19
2024/03/07 03:50:50;;;;;;;;;;;;;;;;;;2207635;59;1756;-19
2024/03/07 03:53:20;;;;;;;;;;;;;;;;;;2208416;67;2399;-18
2024/03/07 03:55:50;;;;;;;;;;;;;;;;;;2206881;59;1810;-19
2024/03/07 03:58:20;;;;;;;;;;;;;;;;;;2204104;67;1693;-19
2024/03/07 04:00:51;;;;;;;;;;;;;;;;;;2208581;59;1970;-18
2024/03/07 04:03:21;;;;;;;;;;;;;;;;;;2205339;59;1883;-18
2024/03/07 04:05:52;;;;;;;;;;;;;;;;;;2205998;67;1936;-19
2024/03/07 04:08:22;;;;;;;;;;;;;;;;;;2204801;59;1913;-19
2024/03/07 04:10:53;;;;;;;;;;;;;;;;;;2209221;67;1881;-19
2024/03/07 04:13:23;;;;;;;;;;;;;;;;;;2209103;59;1931;-19
2024/03/07 04:15:53;;;;;;;;;;;;;;;;;;2206259;67;1775;-18
2024/03/07 04:18:24;;;;;;;;;;;;;;;;;;2207244;67;1938;-18
2024/03/07 04:20:54;;;;;;;;;;;;;;;;;;2208754;67;1939;-19
2024/03/07 04:26:01;;;;;;;;;;;;;;;;;;2202656;59;2501;-23
2024/03/07 04:28:32;;;;;;;;;;;;;;;;;;2204733;59;1712;-24
2024/03/07 04:31:02;;;;;;;;;;;;;;;;;;2201066;67;1784;-24
2024/03/07 04:33:32;;;;;;;;;;;;;;;;;;2205826;58;1792;-24
2024/03/07 04:36:03;;;;;;;;;;;;;;;;;;2201969;67;1720;-23
2024/03/07 04:38:33;;;;;;;;;;;;;;;;;;2201534;59;1905;-23
2024/03/07 04:41:03;;;;;;;;;;;;;;;;;;2200284;59;1912;-24
2024/03/07 04:43:34;;;;;;;;;;;;;;;;;;2202099;67;1900;-24
2024/03/07 04:46:06;;;;;;;;;;;;;;;;;;2205780;59;1946;-24
2024/03/07 04:48:37;;;;;;;;;;;;;;;;;;2205804;66;1988;-23
2024/03/07 04:51:08;;;;;;;;;;;;;;;;;;2206537;66;1792;-23
2024/03/07 04:53:41;;;;;;;;;;;;;;;;;;2204970;66;1910;-23
2024/03/07 04:56:13;;;;;;;;;;;;;;;;;;2205401;59;1923;-23
2024/03/07 04:58:43;;;;;;;;;;;;;;;;;;2205483;59;1758;-23
2024/03/07 05:01:13;;;;;;;;;;;;;;;;;;2202550;66;1882;-23
2024/03/07 05:03:43;;;;;;;;;;;;;;;;;;2202793;67;1983;-23
2024/03/07 05:06:16;;;;;;;;;;;;;;;;;;2205147;66;1872;-23
2024/03/07 05:08:46;;;;;;;;;;;;;;;;;;2202602;66;2278;-23
2024/03/07 05:11:17;;;;;;;;;;;;;;;;;;2205820;66;2267;-23
2024/03/07 05:13:48;;;;;;;;;;;;;;;;;;2203416;59;2974;-23
2024/03/07 05:16:19;;;;;;;;;;;;;;;;;;2201967;59;1893;-23
2024/03/07 05:18:50;;;;;;;;;;;;;;;;;;2202829;67;2359;-23
2024/03/07 05:24:03;;;;;;;;;;;;;;;;;;2202324;59;1976;-23
2024/03/07 05:26:37;;;;;;;;;;;;;;;;;;2202823;59;2428;-23
2024/03/07 05:29:08;;;;;;;;;;;;;;;;;;2205959;66;1832;-23
2024/03/07 05:31:44;;;;;;;;;;;;;;;;;;2202087;66;1869;-23
2024/03/07 05:34:15;;;;;;;;;;;;;;;;;;2202718;59;2356;-23
2024/03/07 05:36:46;;;;;;;;;;;;;;;;;;2202570;66;2458;-23
2024/03/07 05:39:17;;;;;;;;;;;;;;;;;;2202793;59;1783;-23
2024/03/07 05:41:48;;;;;;;;;;;;;;;;;;2205570;67;2471;-22
2024/03/07 05:44:19;;;;;;;;;;;;;;;;;;2205649;66;1933;-23
2024/03/07 05:46:50;;;;;;;;;;;;;;;;;;2203389;59;1830;-23
2024/03/07 05:49:21;;;;;;;;;;;;;;;;;;2206277;59;1922;-23
2024/03/07 05:51:51;;;;;;;;;;;;;;;;;;2203231;59;2342;-23
2024/03/07 05:54:21;;;;;;;;;;;;;;;;;;2205990;66;1931;-23
2024/03/07 05:56:51;;;;;;;;;;;;;;;;;;2203851;66;1843;-23
2024/03/07 05:59:22;;;;;;;;;;;;;;;;;;2202768;59;1954;-23
2024/03/07 06:01:52;;;;;;;;;;;;;;;;;;2205595;66;1730;-23
2024/03/07 06:04:22;;;;;;;;;;;;;;;;;;2202923;59;1946;-23
2024/03/07 06:06:52;;;;;;;;;;;;;;;;;;2201091;67;1188;-23
2024/03/07 06:09:23;;;;;;;;;;;;;;;;;;2206203;66;1577;-23
2024/03/07 06:11:53;;;;;;;;;;;;;;;;;;2205908;66;1113;-23
2024/03/07 06:14:24;;;;;;;;;;;;;;;;;;2205684;59;1590;-23
2024/03/07 06:16:54;;;;;;;;;;;;;;;;;;2203223;67;1967;-23
2024/03/07 06:19:25;;;;;;;;;;;;;;;;;;2205542;59;1201;-23
2024/03/07 06:21:55;;;;;;;;;;;;;;;;;;2203025;67;1242;-23
2024/03/07 06:24:30;;;;;;;;;;;;;;;;;;2202318;59;1945;-23
2024/03/07 06:27:03;;;;;;;;;;;;;;;;;;2205907;66;1406;-23
2024/03/07 06:29:33;;;;;;;;;;;;;;;;;;2203229;66;1600;-23
2024/03/07 06:32:03;;;;;;;;;;;;;;;;;;2202503;59;1534;-23
2024/03/07 06:34:36;;;;;;;;;;;;;;;;;;2205217;59;1708;-23
2024/03/07 06:37:08;;;;;;;;;;;;;;;;;;2205743;66;1208;-23
2024/03/07 06:39:38;;;;;;;;;;;;;;;;;;2206064;59;1810;-23
2024/03/07 06:42:09;;;;;;;;;;;;;;;;;;2200491;67;1557;-23
2024/03/07 06:44:39;;;;;;;;;;;;;;;;;;2202522;59;4653;-23
2024/03/07 06:47:09;;;;;;;;;;;;;;;;;;2205736;59;1939;-23
2024/03/07 06:49:40;;;;;;;;;;;;;;;;;;2199005;67;2451;-23
2024/03/07 06:52:10;;;;;;;;;;;;;;;;;;2206328;67;1832;-23
2024/03/07 06:54:40;;;;;;;;;;;;;;;;;;2206041;59;2411;-23
2024/03/07 06:57:11;;;;;;;;;;;;;;;;;;2205623;59;1822;-23
2024/03/07 06:59:41;;;;;;;;;;;;;;;;;;2202204;66;2018;-23
2024/03/07 07:02:11;;;;;;;;;;;;;;;;;;2202622;59;2514;-23
2024/03/07 07:04:41;;;;;;;;;;;;;;;;;;2205579;59;1972;-23
2024/03/07 07:07:12;;;;;;;;;;;;;;;;;;2203470;67;1848;-23
2024/03/07 07:09:43;;;;;;;;;;;;;;;;;;2202117;66;1950;-23
2024/03/07 07:12:14;;;;;;;;;;;;;;;;;;2200985;59;1783;-23
2024/03/07 07:14:44;;;;;;;;;;;;;;;;;;2205706;59;1955;-23
2024/03/07 07:17:15;;;;;;;;;;;;;;;;;;2204447;59;3554;-23
2024/03/07 07:19:45;;;;;;;;;;;;;;;;;;2205150;59;2048;-23
2024/03/07 07:22:15;;;;;;;;;;;;;;;;;;2199981;66;2485;-23
2024/03/07 07:24:45;;;;;;;;;;;;;;;;;;2204759;59;1944;-23
2024/03/07 07:27:15;;;;;;;;;;;;;;;;;;2205557;59;2171;-23
2024/03/07 07:29:46;;;;;;;;;;;;;;;;;;2201786;67;2578;-23
2024/03/07 07:32:16;;;;;;;;;;;;;;;;;;2200290;66;1983;-23
2024/03/07 07:34:48;;;;;;;;;;;;;;;;;;2204688;59;2385;-23
2024/03/07 07:37:18;;;;;;;;;;;;;;;;;;2205854;66;2602;-23
2024/03/07 07:39:48;;;;;;;;;;;;;;;;;;2204884;59;2988;-23
2024/03/07 07:42:19;;;;;;;;;;;;;;;;;;2203024;66;1926;-23
2024/03/07 07:44:49;;;;;;;;;;;;;;;;;;2203365;59;2488;-23
2024/03/07 07:47:19;;;;;;;;;;;;;;;;;;2201030;59;2150;-23
2024/03/07 07:49:49;;;;;;;;;;;;;;;;;;2203431;59;2204;-23
2024/03/07 07:52:19;;;;;;;;;;;;;;;;;;2206619;59;1852;-23
2024/03/07 07:54:50;;;;;;;;;;;;;;;;;;2205981;59;1870;-23
2024/03/07 07:57:21;;;;;;;;;;;;;;;;;;2202935;67;2155;-23
2024/03/07 07:59:51;;;;;;;;;;;;;;;;;;2205816;59;2282;-23
2024/03/07 08:02:22;;;;;;;;;;;;;;;;;;2205889;66;2024;-23
2024/03/07 08:04:52;;;;;;;;;;;;;;;;;;2203920;59;2790;-23
2024/03/07 08:07:22;;;;;;;;;;;;;;;;;;2206101;66;1864;-23
2024/03/07 08:09:52;;;;;;;;;;;;;;;;;;2204969;66;2339;-23
2024/03/07 08:12:23;;;;;;;;;;;;;;;;;;2205897;59;2481;-23
2024/03/07 08:14:53;;;;;;;;;;;;;;;;;;2203288;59;1854;-23
2024/03/07 08:17:23;;;;;;;;;;;;;;;;;;2206280;59;1981;-23
2024/03/07 08:19:53;;;;;;;;;;;;;;;;;;2206034;66;1972;-23
2024/03/07 08:22:24;;;;;;;;;;;;;;;;;;2206313;66;1842;-23
2024/03/07 08:24:55;;;;;;;;;;;;;;;;;;2205482;59;1953;-23
2024/03/07 08:27:25;;;;;;;;;;;;;;;;;;2205403;59;2454;-23
2024/03/07 08:29:55;;;;;;;;;;;;;;;;;;2205831;66;2078;-23
2024/03/07 08:32:26;;;;;;;;;;;;;;;;;;2201426;66;1780;-23
2024/03/07 08:34:56;;;;;;;;;;;;;;;;;;2205578;59;1916;-23
2024/03/07 08:37:26;;;;;;;;;;;;;;;;;;2206021;59;2122;-23
2024/03/07 08:39:57;;;;;;;;;;;;;;;;;;2206188;59;1757;-23
2024/03/07 08:42:27;;;;;;;;;;;;;;;;;;2205643;66;1561;-23
2024/03/07 08:44:57;;;;;;;;;;;;;;;;;;2203515;59;2095;-23
2024/03/07 08:47:28;;;;;;;;;;;;;;;;;;2205329;59;2436;-23
2024/03/07 08:49:58;;;;;;;;;;;;;;;;;;2205353;59;2034;-23
2024/03/07 08:52:28;;;;;;;;;;;;;;;;;;2204938;59;2815;-23
2024/03/07 08:54:59;;;;;;;;;;;;;;;;;;2201498;59;2848;-23
2024/03/07 08:57:29;;;;;;;;;;;;;;;;;;2201926;59;2503;-33
2024/03/07 09:00:01;;;;;;;;;;;;;;;;;;2205603;66;1187;-23
2024/03/07 09:02:31;;;;;;;;;;;;;;;;;;2204722;59;2198;-23
2024/03/07 09:05:02;;;;;;;;;;;;;;;;;;2204760;59;2273;-23
2024/03/07 09:07:32;;;;;;;;;;;;;;;;;;2202085;67;1436;-23
2024/03/07 09:10:03;;;;;;;;;;;;;;;;;;2202702;59;1914;-23
2024/03/07 09:12:34;;;;;;;;;;;;;;;;;;2201248;59;2411;-23
2024/03/07 09:15:05;;;;;;;;;;;;;;;;;;2203440;59;3272;-23
2024/03/07 09:17:36;;;;;;;;;;;;;;;;;;2205134;66;1312;-23
2024/03/07 09:20:08;;;;;;;;;;;;;;;;;;2202544;67;1471;-23
2024/03/07 09:22:38;;;;;;;;;;;;;;;;;;2200638;59;1678;-23
2024/03/07 09:25:10;;;;;;;;;;;;;;;;;;2204387;59;2603;-23
2024/03/07 09:27:40;;;;;;;;;;;;;;;;;;2204893;59;1189;-23
2024/03/07 09:30:18;;;;;;;;;;;;;;;;;;2202273;67;1334;-23
2024/03/07 09:32:49;;;;;;;;;;;;;;;;;;2202239;66;1202;-23
2024/03/07 09:35:19;;;;;;;;;;;;;;;;;;2206809;59;1736;-23
2024/03/07 09:37:49;;;;;;;;;;;;;;;;;;2204904;59;2199;-23
2024/03/07 09:40:24;;;;;;;;;;;;;;;;;;2204924;59;2184;-23
2024/03/07 09:42:56;;;;;;;;;;;;;;;;;;2203173;59;1975;-23
2024/03/07 09:45:28;;;;;;;;;;;;;;;;;;2202130;59;1937;-23
2024/03/07 09:47:59;;;;;;;;;;;;;;;;;;2201241;67;1833;-23
2024/03/07 09:50:29;;;;;;;;;;;;;;;;;;2203987;66;1407;-23
2024/03/07 09:53:00;;;;;;;;;;;;;;;;;;2204428;59;1569;-23
2024/03/07 09:55:31;;;;;;;;;;;;;;;;;;2204794;66;1695;-23
2024/03/07 09:58:02;;;;;;;;;;;;;;;;;;2201675;59;2671;-23
2024/03/07 10:00:34;;;;;;;;;;;;;;;;;;2204347;66;1793;-23
2024/03/07 10:03:06;;;;;;;;;;;;;;;;;;2202933;59;1699;-23
2024/03/07 10:05:37;;;;;;;;;;;;;;;;;;2203996;59;2661;-23
2024/03/07 10:08:08;;;;;;;;;;;;;;;;;;2201244;59;2250;-23
2024/03/07 10:10:38;;;;;;;;;;;;;;;;;;2203358;66;2102;-23
2024/03/07 10:13:09;;;;;;;;;;;;;;;;;;2200106;66;1982;-23
2024/03/07 10:15:43;;;;;;;;;;;;;;;;;;2205420;59;1575;-23
2024/03/07 10:18:14;;;;;;;;;;;;;;;;;;2205099;66;2203;-23
2024/03/07 10:20:44;;;;;;;;;;;;;;;;;;2204586;59;2094;-23
2024/03/07 10:23:21;;;;;;;;;;;;;;;;;;2201892;67;1558;-23
2024/03/07 10:25:53;;;;;;;;;;;;;;;;;;2204394;59;2204;-23
2024/03/07 10:28:23;;;;;;;;;;;;;;;;;;2203118;59;2425;-22
2024/03/07 10:30:54;;;;;;;;;;;;;;;;;;2201091;58;1410;-23
2024/03/07 10:33:27;;;;;;;;;;;;;;;;;;2200560;59;1403;-23
2024/03/07 10:35:58;;;;;;;;;;;;;;;;;;2202309;59;1824;-23
2024/03/07 10:38:28;;;;;;;;;;;;;;;;;;2202406;67;1314;-23
2024/03/07 10:40:59;;;;;;;;;;;;;;;;;;2205323;59;1832;-23
2024/03/07 10:43:32;;;;;;;;;;;;;;;;;;2206417;67;1628;-23
2024/03/07 10:46:06;;;;;;;;;;;;;;;;;;2202757;59;1952;-23
2024/03/07 10:48:39;;;;;;;;;;;;;;;;;;2205243;59;1071;-23
2024/03/07 10:51:18;;;;;;;;;;;;;;;;;;2198985;59;2316;-23
2024/03/07 10:54:20;;;;;;;;;;;;;;;;;;2202272;66;1540;-23
2024/03/07 10:57:00;;;;;;;;;;;;;;;;;;2202330;67;1441;-23
2024/03/07 10:59:32;;;;;;;;;;;;;;;;;;2202128;66;1503;-23
2024/03/07 11:02:12;;;;;;;;;;;;;;;;;;2204725;58;1316;-23
2024/03/07 11:04:42;;;;;;;;;;;;;;;;;;2202869;59;1933;-23
2024/03/07 11:07:12;;;;;;;;;;;;;;;;;;2205444;60;1178;-23
2024/03/07 11:09:43;;;;;;;;;;;;;;;;;;2205009;66;1478;-23
2024/03/07 11:12:14;;;;;;;;;;;;;;;;;;2206168;67;1527;-23
2024/03/07 11:14:47;;;;;;;;;;;;;;;;;;2202862;59;1852;-23
2024/03/07 11:17:19;;;;;;;;;;;;;;;;;;2202005;59;1248;-23
2024/03/07 11:19:49;;;;;;;;;;;;;;;;;;2205918;59;1660;-23
2024/03/07 11:22:34;;;;;;;;;;;;;;;;;;2205600;59;1382;-23
2024/03/07 11:25:10;;;;;;;;;;;;;;;;;;2205910;59;1953;-23
2024/03/07 11:27:50;;;;;;;;;;;;;;;;;;2205444;66;1444;-23
2024/03/07 11:30:22;;;;;;;;;;;;;;;;;;2202737;59;1310;-23
2024/03/07 11:32:53;;;;;;;;;;;;;;;;;;2205939;66;1578;-23
2024/03/07 11:35:35;;;;;;;;;;;;;;;;;;2206033;59;1871;-23
2024/03/07 11:38:10;;;;;;;;;;;;;;;;;;2204818;59;2550;-23
2024/03/07 11:40:43;;;;;;;;;;;;;;;;;;2202557;59;1849;-23
2024/03/07 11:43:14;;;;;;;;;;;;;;;;;;2205199;59;1661;-23
2024/03/07 11:45:52;;;;;;;;;;;;;;;;;;2202908;59;2093;-23
2024/03/07 11:48:22;;;;;;;;;;;;;;;;;;2206638;66;1733;-23
2024/03/07 11:50:55;;;;;;;;;;;;;;;;;;2205560;59;1626;-23
2024/03/07 11:53:25;;;;;;;;;;;;;;;;;;2205931;66;1332;-23
2024/03/07 11:55:55;;;;;;;;;;;;;;;;;;2205837;59;1623;-23
2024/03/07 11:58:25;;;;;;;;;;;;;;;;;;2206096;66;1247;-23
2024/03/07 12:00:58;;;;;;;;;;;;;;;;;;2202239;66;1754;-23
2024/03/07 12:03:29;;;;;;;;;;;;;;;;;;2206037;58;1879;-23
2024/03/07 12:05:59;;;;;;;;;;;;;;;;;;2203625;59;2292;-23
2024/03/07 12:08:29;;;;;;;;;;;;;;;;;;2203226;59;2053;-23
2024/03/07 12:11:00;;;;;;;;;;;;;;;;;;2204459;59;2120;-23
2024/03/07 12:13:30;;;;;;;;;;;;;;;;;;2203275;59;1813;-23
2024/03/07 12:16:01;;;;;;;;;;;;;;;;;;2201602;59;2110;-23
2024/03/07 12:18:31;;;;;;;;;;;;;;;;;;2202205;59;2137;-23
2024/03/07 12:21:06;;;;;;;;;;;;;;;;;;2203901;59;2129;-23
2024/03/07 12:23:40;;;;;;;;;;;;;;;;;;2204089;59;3446;-23
2024/03/07 12:26:14;;;;;;;;;;;;;;;;;;2204267;66;2004;-23
2024/03/07 12:28:46;;;;;;;;;;;;;;;;;;2205255;58;2296;-23
2024/03/07 12:31:17;;;;;;;;;;;;;;;;;;2203579;59;2198;-23
2024/03/07 12:33:51;;;;;;;;;;;;;;;;;;2201432;59;2769;-23
2024/03/07 12:36:22;;;;;;;;;;;;;;;;;;2201165;59;2624;-23
2024/03/07 12:38:53;;;;;;;;;;;;;;;;;;2199064;59;1711;-23
2024/03/07 12:41:23;;;;;;;;;;;;;;;;;;2201811;59;3492;-23
2024/03/07 12:43:53;;;;;;;;;;;;;;;;;;2200850;59;1532;-23
2024/03/07 12:46:24;;;;;;;;;;;;;;;;;;2205335;59;1943;-23
2024/03/07 12:48:58;;;;;;;;;;;;;;;;;;2204077;59;1738;-23
2024/03/07 12:51:28;;;;;;;;;;;;;;;;;;2204010;66;1532;-23
2024/03/07 12:53:58;;;;;;;;;;;;;;;;;;2204407;66;1659;-23
2024/03/07 12:56:34;;;;;;;;;;;;;;;;;;2204388;66;1600;-23
2024/03/07 12:59:05;;;;;;;;;;;;;;;;;;2203763;66;1385;-23
2024/03/07 13:01:39;;;;;;;;;;;;;;;;;;2201443;66;1853;-23
2024/03/07 13:04:10;;;;;;;;;;;;;;;;;;2201594;59;1940;-23
2024/03/07 13:06:43;;;;;;;;;;;;;;;;;;2201351;66;1743;-23
2024/03/07 13:09:13;;;;;;;;;;;;;;;;;;2205763;66;1867;-23
2024/03/07 13:11:47;;;;;;;;;;;;;;;;;;2200720;66;1934;-23
2024/03/07 13:14:17;;;;;;;;;;;;;;;;;;2206104;59;1530;-23
2024/03/07 13:16:47;;;;;;;;;;;;;;;;;;2201850;67;1728;-23
2024/03/07 13:19:20;;;;;;;;;;;;;;;;;;2201806;59;2158;-23
2024/03/07 13:21:52;;;;;;;;;;;;;;;;;;2202662;59;2558;-23
2024/03/07 13:24:22;;;;;;;;;;;;;;;;;;2200307;66;2529;-23
2024/03/07 13:26:53;;;;;;;;;;;;;;;;;;2203209;59;2724;-23
2024/03/07 13:29:28;;;;;;;;;;;;;;;;;;2204890;66;1630;-23
2024/03/07 13:31:59;;;;;;;;;;;;;;;;;;2202573;67;2222;-23
2024/03/07 13:34:29;;;;;;;;;;;;;;;;;;2204856;66;1717;-23
2024/03/07 13:37:01;;;;;;;;;;;;;;;;;;2200487;66;2229;-23
2024/03/07 13:39:31;;;;;;;;;;;;;;;;;;2205164;59;3121;-23
2024/03/07 13:42:01;;;;;;;;;;;;;;;;;;2203481;66;2350;-23
2024/03/07 13:44:31;;;;;;;;;;;;;;;;;;2202297;59;1952;-23
2024/03/07 13:47:01;;;;;;;;;;;;;;;;;;2195011;67;2363;-23
2024/03/07 13:49:33;;;;;;;;;;;;;;;;;;2205460;66;1570;-23
2024/03/07 13:52:10;;;;;;;;;;;;;;;;;;2201026;66;1892;-23
2024/03/07 13:54:40;;;;;;;;;;;;;;;;;;2206046;59;1708;-23
2024/03/07 13:57:21;;;;;;;;;;;;;;;;;;2203889;59;2262;-23
2024/03/07 13:59:55;;;;;;;;;;;;;;;;;;2201615;66;1478;-23
2024/03/07 14:02:25;;;;;;;;;;;;;;;;;;2204614;59;2606;-23
2024/03/07 14:05:22;;;;;;;;;;;;;;;;;;2203418;58;2357;-23
2024/03/07 14:08:06;;;;;;;;;;;;;;;;;;2196911;66;1766;-23
2024/03/07 14:10:56;;;;;;;;;;;;;;;;;;2204641;66;1588;-23
2024/03/07 14:13:54;;;;;;;;;;;;;;;;;;2201860;59;1901;-23
2024/03/07 14:16:39;;;;;;;;;;;;;;;;;;2204546;66;1600;-23
2024/03/07 14:19:26;;;;;;;;;;;;;;;;;;2203283;66;1431;-23
2024/03/07 14:21:56;;;;;;;;;;;;;;;;;;2202922;66;1715;-23
2024/03/07 14:24:47;;;;;;;;;;;;;;;;;;2204437;59;2052;-23
2024/03/07 14:27:29;;;;;;;;;;;;;;;;;;2205524;67;1708;-23
2024/03/07 14:30:22;;;;;;;;;;;;;;;;;;2204170;66;1593;-23
2024/03/07 14:32:55;;;;;;;;;;;;;;;;;;2201463;60;1740;-23
2024/03/07 14:35:44;;;;;;;;;;;;;;;;;;2204797;59;2540;-23
2024/03/07 14:38:14;;;;;;;;;;;;;;;;;;2203606;59;1563;-23
2024/03/07 14:40:49;;;;;;;;;;;;;;;;;;2205083;59;1849;-23
2024/03/07 14:43:20;;;;;;;;;;;;;;;;;;2201628;67;1541;-23
2024/03/07 14:45:51;;;;;;;;;;;;;;;;;;2204098;59;1991;-23
2024/03/07 14:48:21;;;;;;;;;;;;;;;;;;2202439;67;1679;-23
2024/03/07 14:50:52;;;;;;;;;;;;;;;;;;2204450;66;2049;-23
2024/03/07 14:53:23;;;;;;;;;;;;;;;;;;2205822;66;1439;-23
2024/03/07 14:55:53;;;;;;;;;;;;;;;;;;2200621;59;1788;-23
2024/03/07 14:58:23;;;;;;;;;;;;;;;;;;2204696;66;2168;-23
2024/03/07 15:00:54;;;;;;;;;;;;;;;;;;2200828;67;1800;-23
2024/03/07 15:03:26;;;;;;;;;;;;;;;;;;2201773;59;2212;-23
2024/03/07 15:05:56;;;;;;;;;;;;;;;;;;2203685;66;2018;-23
2024/03/07 15:08:28;;;;;;;;;;;;;;;;;;2204981;66;1763;-23
2024/03/07 15:11:24;;;;;;;;;;;;;;;;;;2203852;66;1714;-23
2024/03/07 15:13:54;;;;;;;;;;;;;;;;;;2203112;63;1884;-23
2024/03/07 15:16:24;;;;;;;;;;;;;;;;;;2202332;67;1540;-23
2024/03/07 15:18:55;;;;;;;;;;;;;;;;;;2197662;66;1559;-23
2024/03/07 15:21:27;;;;;;;;;;;;;;;;;;2203914;59;2542;-23
2024/03/07 15:23:58;;;;;;;;;;;;;;;;;;2201789;59;2871;-23
2024/03/07 15:26:30;;;;;;;;;;;;;;;;;;2204019;59;2952;-23
2024/03/07 15:29:01;;;;;;;;;;;;;;;;;;2204777;59;2392;-23
2024/03/07 15:31:32;;;;;;;;;;;;;;;;;;2202843;67;1790;-23
2024/03/07 15:34:03;;;;;;;;;;;;;;;;;;2201095;59;1845;-23
2024/03/07 15:36:33;;;;;;;;;;;;;;;;;;2205750;66;1616;-23
2024/03/07 15:39:19;;;;;;;;;;;;;;;;;;2202488;59;1807;-23
2024/03/07 15:41:49;;;;;;;;;;;;;;;;;;2205291;66;1838;-23
2024/03/07 15:44:20;;;;;;;;;;;;;;;;;;2204515;59;1986;-23
2024/03/07 15:46:50;;;;;;;;;;;;;;;;;;2205333;59;1916;-23
2024/03/07 15:49:21;;;;;;;;;;;;;;;;;;2205152;66;1906;-22
2024/03/07 15:51:51;;;;;;;;;;;;;;;;;;2200430;59;2739;-22
2024/03/07 15:54:23;;;;;;;;;;;;;;;;;;2202864;59;3051;-22
2024/03/07 15:56:54;;;;;;;;;;;;;;;;;;2200138;66;2796;-22
2024/03/07 15:59:24;;;;;;;;;;;;;;;;;;2203416;59;1575;-22
2024/03/07 16:01:54;;;;;;;;;;;;;;;;;;2203971;66;2560;-22
2024/03/07 16:04:24;;;;;;;;;;;;;;;;;;2202632;67;1990;-22
2024/03/07 16:06:54;;;;;;;;;;;;;;;;;;2201637;66;1439;-22
2024/03/07 16:09:25;;;;;;;;;;;;;;;;;;2206494;66;1358;-22
2024/03/07 16:11:55;;;;;;;;;;;;;;;;;;2203541;66;1496;-22
2024/03/07 16:14:25;;;;;;;;;;;;;;;;;;2204013;59;1750;-22
2024/03/07 16:16:56;;;;;;;;;;;;;;;;;;2200678;67;1526;-22
2024/03/07 16:19:26;;;;;;;;;;;;;;;;;;2205122;67;1583;-22
2024/03/07 16:21:56;;;;;;;;;;;;;;;;;;2204427;66;1624;-22
2024/03/07 16:24:26;;;;;;;;;;;;;;;;;;2203139;59;2415;-22
2024/03/07 16:26:56;;;;;;;;;;;;;;;;;;2198745;66;2280;-22
2024/03/07 16:29:27;;;;;;;;;;;;;;;;;;2205251;66;1609;-22
2024/03/07 16:31:57;;;;;;;;;;;;;;;;;;2203865;66;1490;-22
2024/03/07 16:34:28;;;;;;;;;;;;;;;;;;2202963;59;2474;-22
2024/03/07 16:36:59;;;;;;;;;;;;;;;;;;2204946;53;3834;-21
2024/03/07 16:39:31;;;;;;;;;;;;;;;;;;2198088;59;2020;-20
2024/03/07 16:42:01;;;;;;;;;;;;;;;;;;2196721;59;2797;-20
2024/03/07 16:44:32;;;;;;;;;;;;;;;;;;2196498;59;2565;-20
2024/03/07 16:47:02;;;;;;;;;;;;;;;;;;2196448;59;2306;-20
2024/03/07 16:49:32;;;;;;;;;;;;;;;;;;2194615;59;2121;-20
2024/03/07 16:52:03;;;;;;;;;;;;;;;;;;2193127;67;2380;-20
2024/03/07 16:54:36;;;;;;;;;;;;;;;;;;2194223;59;1990;-20
2024/03/07 16:57:06;;;;;;;;;;;;;;;;;;2193619;59;1834;-20
2024/03/07 16:59:40;;;;;;;;;;;;;;;;;;2195208;67;1577;-20
2024/03/07 17:02:11;;;;;;;;;;;;;;;;;;2193818;67;1957;-20
2024/03/07 17:04:41;;;;;;;;;;;;;;;;;;2193424;59;1912;-20
2024/03/07 17:07:12;;;;;;;;;;;;;;;;;;2192482;59;1920;-20
2024/03/07 17:09:42;;;;;;;;;;;;;;;;;;2192973;64;1881;-20
2024/03/07 17:12:12;;;;;;;;;;;;;;;;;;2192786;59;1738;-20
2024/03/07 17:14:43;;;;;;;;;;;;;;;;;;2193362;59;1862;-20
2024/03/07 17:17:15;;;;;;;;;;;;;;;;;;2194862;67;1829;-20
2024/03/07 17:19:47;;;;;;;;;;;;;;;;;;2193482;67;1856;-20
2024/03/07 17:22:18;;;;;;;;;;;;;;;;;;2192368;59;2209;-20
2024/03/07 17:24:49;;;;;;;;;;;;;;;;;;2192761;67;2005;-20
2024/03/07 17:27:19;;;;;;;;;;;;;;;;;;2192056;67;2084;-20
2024/03/07 17:29:50;;;;;;;;;;;;;;;;;;2193269;67;1836;-20
2024/03/07 17:32:21;;;;;;;;;;;;;;;;;;2192744;67;1991;-20
2024/03/07 17:34:51;;;;;;;;;;;;;;;;;;2193330;59;2041;-20
2024/03/07 17:37:21;;;;;;;;;;;;;;;;;;2193684;59;2042;-20
2024/03/07 17:39:55;;;;;;;;;;;;;;;;;;2194199;59;2101;-20